sensor_id;sensor_type;location;lat;lon;timestamp;temperature;humidity
19050;DHT22;9657;45.940;12.840;2023-02-28T00:00:10;12.00;65.50
19050;DHT22;9657;45.940;12.840;2023-02-28T00:02:39;12.00;65.50
19050;DHT22;9657;45.940;12.840;2023-02-28T00:05:08;12.00;65.50
19050;DHT22;9657;45.940;12.840;2023-02-28T00:07:35;12.00;65.50
19050;DHT22;9657;45.940;12.840;2023-02-28T00:10:03;12.00;65.50
19050;DHT22;9657;45.940;12.840;2023-02-28T00:12:33;12.00;65.50
19050;DHT22;9657;45.940;12.840;2023-02-28T00:15:00;11.90;65.40
19050;DHT22;9657;45.940;12.840;2023-02-28T00:17:27;11.90;65.30
19050;DHT22;9657;45.940;12.840;2023-02-28T00:19:54;11.90;65.40
19050;DHT22;9657;45.940;12.840;2023-02-28T00:22:22;11.90;65.40
19050;DHT22;9657;45.940;12.840;2023-02-28T00:24:49;11.90;65.40
19050;DHT22;9657;45.940;12.840;2023-02-28T00:27:16;11.90;65.30
19050;DHT22;9657;45.940;12.840;2023-02-28T00:29:46;11.90;65.30
19050;DHT22;9657;45.940;12.840;2023-02-28T00:32:13;11.90;65.40
19050;DHT22;9657;45.940;12.840;2023-02-28T00:34:40;11.90;65.40
19050;DHT22;9657;45.940;12.840;2023-02-28T00:37:09;11.90;65.40
19050;DHT22;9657;45.940;12.840;2023-02-28T00:39:37;11.90;65.40
19050;DHT22;9657;45.940;12.840;2023-02-28T00:42:06;11.90;65.30
19050;DHT22;9657;45.940;12.840;2023-02-28T00:44:33;11.90;65.30
19050;DHT22;9657;45.940;12.840;2023-02-28T00:47:02;11.90;65.30
19050;DHT22;9657;45.940;12.840;2023-02-28T00:49:29;11.90;65.20
19050;DHT22;9657;45.940;12.840;2023-02-28T00:51:56;11.80;66.00
19050;DHT22;9657;45.940;12.840;2023-02-28T00:54:23;11.90;65.40
19050;DHT22;9657;45.940;12.840;2023-02-28T00:56:50;11.80;65.20
19050;DHT22;9657;45.940;12.840;2023-02-28T00:59:18;11.90;65.30
19050;DHT22;9657;45.940;12.840;2023-02-28T01:01:46;11.90;65.20
19050;DHT22;9657;45.940;12.840;2023-02-28T01:04:15;11.80;65.30
19050;DHT22;9657;45.940;12.840;2023-02-28T01:06:42;11.90;65.30
19050;DHT22;9657;45.940;12.840;2023-02-28T01:09:10;11.90;65.20
19050;DHT22;9657;45.940;12.840;2023-02-28T01:11:37;11.80;65.20
19050;DHT22;9657;45.940;12.840;2023-02-28T01:14:04;11.80;65.20
19050;DHT22;9657;45.940;12.840;2023-02-28T01:16:31;11.80;65.10
19050;DHT22;9657;45.940;12.840;2023-02-28T01:18:58;11.80;65.20
19050;DHT22;9657;45.940;12.840;2023-02-28T01:21:27;11.80;65.10
19050;DHT22;9657;45.940;12.840;2023-02-28T01:23:56;11.80;65.10
19050;DHT22;9657;45.940;12.840;2023-02-28T01:26:23;11.80;65.20
19050;DHT22;9657;45.940;12.840;2023-02-28T01:28:52;11.80;65.20
19050;DHT22;9657;45.940;12.840;2023-02-28T01:31:20;11.80;65.10
19050;DHT22;9657;45.940;12.840;2023-02-28T01:33:49;11.80;65.10
19050;DHT22;9657;45.940;12.840;2023-02-28T01:36:18;11.80;65.20
19050;DHT22;9657;45.940;12.840;2023-02-28T01:38:47;11.80;65.10
19050;DHT22;9657;45.940;12.840;2023-02-28T01:41:17;11.80;65.20
19050;DHT22;9657;45.940;12.840;2023-02-28T01:43:57;11.80;65.10
19050;DHT22;9657;45.940;12.840;2023-02-28T01:46:24;11.80;65.20
19050;DHT22;9657;45.940;12.840;2023-02-28T01:48:54;11.80;65.10
19050;DHT22;9657;45.940;12.840;2023-02-28T01:51:27;11.80;65.20
19050;DHT22;9657;45.940;12.840;2023-02-28T01:53:59;11.80;65.40
19050;DHT22;9657;45.940;12.840;2023-02-28T01:56:29;11.80;65.50
19050;DHT22;9657;45.940;12.840;2023-02-28T01:58:57;11.80;65.60
19050;DHT22;9657;45.940;12.840;2023-02-28T02:04:01;11.80;65.50
19050;DHT22;9657;45.940;12.840;2023-02-28T02:06:31;11.80;66.40
19050;DHT22;9657;45.940;12.840;2023-02-28T02:09:01;11.80;65.50
19050;DHT22;9657;45.940;12.840;2023-02-28T02:11:28;11.80;65.60
19050;DHT22;9657;45.940;12.840;2023-02-28T02:14:10;11.80;65.50
19050;DHT22;9657;45.940;12.840;2023-02-28T02:16:50;11.80;65.60
19050;DHT22;9657;45.940;12.840;2023-02-28T02:19:44;11.70;65.50
19050;DHT22;9657;45.940;12.840;2023-02-28T02:22:35;11.80;65.60
19050;DHT22;9657;45.940;12.840;2023-02-28T02:25:14;11.80;65.60
19050;DHT22;9657;45.940;12.840;2023-02-28T02:28:00;11.80;65.60
19050;DHT22;9657;45.940;12.840;2023-02-28T02:30:46;11.70;65.50
19050;DHT22;9657;45.940;12.840;2023-02-28T02:33:35;11.80;65.60
19050;DHT22;9657;45.940;12.840;2023-02-28T02:36:13;11.70;65.50
19050;DHT22;9657;45.940;12.840;2023-02-28T02:38:47;11.70;65.60
19050;DHT22;9657;45.940;12.840;2023-02-28T02:41:19;11.70;65.60
19050;DHT22;9657;45.940;12.840;2023-02-28T02:43:52;11.70;65.50
19050;DHT22;9657;45.940;12.840;2023-02-28T02:46:21;11.70;65.60
19050;DHT22;9657;45.940;12.840;2023-02-28T02:48:51;11.70;65.60
19050;DHT22;9657;45.940;12.840;2023-02-28T02:51:21;11.70;65.60
19050;DHT22;9657;45.940;12.840;2023-02-28T02:53:52;11.70;65.60
19050;DHT22;9657;45.940;12.840;2023-02-28T02:56:23;11.70;65.60
19050;DHT22;9657;45.940;12.840;2023-02-28T02:58:54;11.70;65.60
19050;DHT22;9657;45.940;12.840;2023-02-28T03:01:24;11.70;65.50
19050;DHT22;9657;45.940;12.840;2023-02-28T03:03:56;11.70;65.50
19050;DHT22;9657;45.940;12.840;2023-02-28T03:06:25;11.70;65.60
19050;DHT22;9657;45.940;12.840;2023-02-28T03:08:52;11.70;65.60
19050;DHT22;9657;45.940;12.840;2023-02-28T03:11:20;11.70;65.70
19050;DHT22;9657;45.940;12.840;2023-02-28T03:14:02;11.70;65.60
19050;DHT22;9657;45.940;12.840;2023-02-28T03:16:36;11.70;65.60
19050;DHT22;9657;45.940;12.840;2023-02-28T03:19:29;11.70;65.60
19050;DHT22;9657;45.940;12.840;2023-02-28T03:22:12;11.70;65.60
19050;DHT22;9657;45.940;12.840;2023-02-28T03:24:45;11.60;65.50
19050;DHT22;9657;45.940;12.840;2023-02-28T03:27:22;11.70;65.60
19050;DHT22;9657;45.940;12.840;2023-02-28T03:29:53;11.70;65.70
19050;DHT22;9657;45.940;12.840;2023-02-28T03:32:26;11.70;65.60
19050;DHT22;9657;45.940;12.840;2023-02-28T03:34:59;11.70;65.60
19050;DHT22;9657;45.940;12.840;2023-02-28T03:37:31;11.70;65.60
19050;DHT22;9657;45.940;12.840;2023-02-28T03:40:06;11.70;65.60
19050;DHT22;9657;45.940;12.840;2023-02-28T03:42:36;11.60;65.60
19050;DHT22;9657;45.940;12.840;2023-02-28T03:45:10;11.70;65.60
19050;DHT22;9657;45.940;12.840;2023-02-28T03:47:41;11.70;65.60
19050;DHT22;9657;45.940;12.840;2023-02-28T03:50:16;11.70;65.60
19050;DHT22;9657;45.940;12.840;2023-02-28T03:52:49;11.70;65.50
19050;DHT22;9657;45.940;12.840;2023-02-28T03:55:17;11.60;65.50
19050;DHT22;9657;45.940;12.840;2023-02-28T03:57:53;11.60;65.50
19050;DHT22;9657;45.940;12.840;2023-02-28T04:00:28;11.60;65.50
19050;DHT22;9657;45.940;12.840;2023-02-28T04:02:55;11.60;65.50
19050;DHT22;9657;45.940;12.840;2023-02-28T04:05:23;11.60;65.50
19050;DHT22;9657;45.940;12.840;2023-02-28T04:07:52;11.60;65.50
19050;DHT22;9657;45.940;12.840;2023-02-28T04:10:20;11.60;65.50
19050;DHT22;9657;45.940;12.840;2023-02-28T04:12:47;11.60;65.70
19050;DHT22;9657;45.940;12.840;2023-02-28T04:15:14;11.60;65.50
19050;DHT22;9657;45.940;12.840;2023-02-28T04:17:41;11.60;65.50
19050;DHT22;9657;45.940;12.840;2023-02-28T04:20:09;11.60;65.50
19050;DHT22;9657;45.940;12.840;2023-02-28T04:22:37;11.60;65.40
19050;DHT22;9657;45.940;12.840;2023-02-28T04:25:07;11.60;65.60
19050;DHT22;9657;45.940;12.840;2023-02-28T04:27:34;11.60;65.60
19050;DHT22;9657;45.940;12.840;2023-02-28T04:30:01;11.60;65.50
19050;DHT22;9657;45.940;12.840;2023-02-28T04:32:28;11.60;65.50
19050;DHT22;9657;45.940;12.840;2023-02-28T04:34:55;11.60;65.50
19050;DHT22;9657;45.940;12.840;2023-02-28T04:37:22;11.60;65.60
19050;DHT22;9657;45.940;12.840;2023-02-28T04:39:53;11.60;65.40
19050;DHT22;9657;45.940;12.840;2023-02-28T04:42:21;11.60;65.50
19050;DHT22;9657;45.940;12.840;2023-02-28T04:44:48;11.60;65.50
19050;DHT22;9657;45.940;12.840;2023-02-28T04:47:15;11.60;65.50
19050;DHT22;9657;45.940;12.840;2023-02-28T04:49:43;11.60;65.50
19050;DHT22;9657;45.940;12.840;2023-02-28T04:52:10;11.60;65.50
19050;DHT22;9657;45.940;12.840;2023-02-28T04:54:38;11.60;65.50
19050;DHT22;9657;45.940;12.840;2023-02-28T04:57:05;11.60;66.00
19050;DHT22;9657;45.940;12.840;2023-02-28T04:59:34;11.60;65.40
19050;DHT22;9657;45.940;12.840;2023-02-28T05:02:01;11.60;65.40
19050;DHT22;9657;45.940;12.840;2023-02-28T05:04:32;11.60;65.50
19050;DHT22;9657;45.940;12.840;2023-02-28T05:07:00;11.60;65.40
19050;DHT22;9657;45.940;12.840;2023-02-28T05:09:27;11.60;65.30
19050;DHT22;9657;45.940;12.840;2023-02-28T05:11:55;11.60;65.40
19050;DHT22;9657;45.940;12.840;2023-02-28T05:14:22;11.60;65.40
19050;DHT22;9657;45.940;12.840;2023-02-28T05:16:50;11.60;65.40
19050;DHT22;9657;45.940;12.840;2023-02-28T05:19:17;11.60;65.50
19050;DHT22;9657;45.940;12.840;2023-02-28T05:21:51;11.50;65.30
19050;DHT22;9657;45.940;12.840;2023-02-28T05:24:18;11.60;65.50
19050;DHT22;9657;45.940;12.840;2023-02-28T05:26:49;11.60;65.30
19050;DHT22;9657;45.940;12.840;2023-02-28T05:29:16;11.60;65.40
19050;DHT22;9657;45.940;12.840;2023-02-28T05:31:43;11.60;65.40
19050;DHT22;9657;45.940;12.840;2023-02-28T05:34:12;11.50;65.40
19050;DHT22;9657;45.940;12.840;2023-02-28T05:36:41;11.50;65.30
19050;DHT22;9657;45.940;12.840;2023-02-28T05:39:08;11.50;65.30
19050;DHT22;9657;45.940;12.840;2023-02-28T05:41:41;11.50;65.30
19050;DHT22;9657;45.940;12.840;2023-02-28T05:44:09;11.50;65.20
19050;DHT22;9657;45.940;12.840;2023-02-28T05:46:36;11.50;65.30
19050;DHT22;9657;45.940;12.840;2023-02-28T05:49:03;11.50;65.30
19050;DHT22;9657;45.940;12.840;2023-02-28T05:51:32;11.50;65.30
19050;DHT22;9657;45.940;12.840;2023-02-28T05:54:00;11.50;65.30
19050;DHT22;9657;45.940;12.840;2023-02-28T05:56:28;11.50;65.40
19050;DHT22;9657;45.940;12.840;2023-02-28T05:58:55;11.50;65.30
19050;DHT22;9657;45.940;12.840;2023-02-28T06:01:26;11.50;65.30
19050;DHT22;9657;45.940;12.840;2023-02-28T06:03:58;11.50;65.40
19050;DHT22;9657;45.940;12.840;2023-02-28T06:06:25;11.50;65.50
19050;DHT22;9657;45.940;12.840;2023-02-28T06:08:53;11.50;65.50
19050;DHT22;9657;45.940;12.840;2023-02-28T06:11:20;11.50;65.50
19050;DHT22;9657;45.940;12.840;2023-02-28T06:13:53;11.50;65.50
19050;DHT22;9657;45.940;12.840;2023-02-28T06:16:20;11.50;65.50
19050;DHT22;9657;45.940;12.840;2023-02-28T06:18:47;11.50;65.60
19050;DHT22;9657;45.940;12.840;2023-02-28T06:21:14;11.50;65.50
19050;DHT22;9657;45.940;12.840;2023-02-28T06:23:41;11.50;65.60
19050;DHT22;9657;45.940;12.840;2023-02-28T06:26:10;11.50;65.60
19050;DHT22;9657;45.940;12.840;2023-02-28T06:28:37;11.50;65.70
19050;DHT22;9657;45.940;12.840;2023-02-28T06:31:07;11.50;65.70
19050;DHT22;9657;45.940;12.840;2023-02-28T06:33:35;11.50;65.70
19050;DHT22;9657;45.940;12.840;2023-02-28T06:36:02;11.50;65.70
19050;DHT22;9657;45.940;12.840;2023-02-28T06:38:29;11.50;66.30
19050;DHT22;9657;45.940;12.840;2023-02-28T06:40:57;11.50;65.70
19050;DHT22;9657;45.940;12.840;2023-02-28T06:43:29;11.50;65.80
19050;DHT22;9657;45.940;12.840;2023-02-28T06:45:56;11.50;65.90
19050;DHT22;9657;45.940;12.840;2023-02-28T06:48:24;11.50;66.00
19050;DHT22;9657;45.940;12.840;2023-02-28T06:50:51;11.50;66.00
19050;DHT22;9657;45.940;12.840;2023-02-28T06:53:18;11.50;66.10
19050;DHT22;9657;45.940;12.840;2023-02-28T06:55:45;11.50;66.10
19050;DHT22;9657;45.940;12.840;2023-02-28T06:58:12;11.50;66.10
19050;DHT22;9657;45.940;12.840;2023-02-28T07:00:43;11.50;66.10
19050;DHT22;9657;45.940;12.840;2023-02-28T07:03:10;11.50;66.10
19050;DHT22;9657;45.940;12.840;2023-02-28T07:05:38;11.50;66.20
19050;DHT22;9657;45.940;12.840;2023-02-28T07:08:06;11.50;66.20
19050;DHT22;9657;45.940;12.840;2023-02-28T07:10:34;11.50;66.50
19050;DHT22;9657;45.940;12.840;2023-02-28T07:13:04;11.50;66.70
19050;DHT22;9657;45.940;12.840;2023-02-28T07:15:31;11.50;66.80
19050;DHT22;9657;45.940;12.840;2023-02-28T07:17:59;11.50;66.80
19050;DHT22;9657;45.940;12.840;2023-02-28T07:20:26;11.50;66.80
19050;DHT22;9657;45.940;12.840;2023-02-28T07:22:53;11.50;66.80
19050;DHT22;9657;45.940;12.840;2023-02-28T07:25:22;11.50;66.80
19050;DHT22;9657;45.940;12.840;2023-02-28T07:27:49;11.50;66.70
19050;DHT22;9657;45.940;12.840;2023-02-28T07:30:17;11.50;66.70
19050;DHT22;9657;45.940;12.840;2023-02-28T07:32:44;11.50;66.70
19050;DHT22;9657;45.940;12.840;2023-02-28T07:35:13;11.50;66.70
19050;DHT22;9657;45.940;12.840;2023-02-28T07:37:40;11.50;66.60
19050;DHT22;9657;45.940;12.840;2023-02-28T07:40:10;11.50;66.60
19050;DHT22;9657;45.940;12.840;2023-02-28T07:42:38;11.50;66.60
19050;DHT22;9657;45.940;12.840;2023-02-28T07:45:07;11.50;66.60
19050;DHT22;9657;45.940;12.840;2023-02-28T07:47:34;11.50;66.60
19050;DHT22;9657;45.940;12.840;2023-02-28T07:50:01;11.50;66.60
19050;DHT22;9657;45.940;12.840;2023-02-28T07:52:29;11.50;66.70
19050;DHT22;9657;45.940;12.840;2023-02-28T07:54:56;11.50;66.60
19050;DHT22;9657;45.940;12.840;2023-02-28T07:57:23;11.50;66.60
19050;DHT22;9657;45.940;12.840;2023-02-28T07:59:51;11.50;66.60
19050;DHT22;9657;45.940;12.840;2023-02-28T08:02:18;11.50;66.70
19050;DHT22;9657;45.940;12.840;2023-02-28T08:04:45;11.50;66.60
19050;DHT22;9657;45.940;12.840;2023-02-28T08:07:13;11.50;66.60
19050;DHT22;9657;45.940;12.840;2023-02-28T08:09:43;11.50;66.60
19050;DHT22;9657;45.940;12.840;2023-02-28T08:12:11;11.50;66.60
19050;DHT22;9657;45.940;12.840;2023-02-28T08:14:38;11.50;66.60
19050;DHT22;9657;45.940;12.840;2023-02-28T08:17:06;11.50;66.60
19050;DHT22;9657;45.940;12.840;2023-02-28T08:19:33;11.50;66.60
19050;DHT22;9657;45.940;12.840;2023-02-28T08:22:00;11.50;66.60
19050;DHT22;9657;45.940;12.840;2023-02-28T08:24:27;11.50;66.60
19050;DHT22;9657;45.940;12.840;2023-02-28T08:26:55;11.50;66.60
19050;DHT22;9657;45.940;12.840;2023-02-28T08:29:23;11.50;66.70
19050;DHT22;9657;45.940;12.840;2023-02-28T08:31:50;11.50;66.60
19050;DHT22;9657;45.940;12.840;2023-02-28T08:34:17;11.50;66.70
19050;DHT22;9657;45.940;12.840;2023-02-28T08:36:44;11.50;66.60
19050;DHT22;9657;45.940;12.840;2023-02-28T08:39:11;11.50;66.60
19050;DHT22;9657;45.940;12.840;2023-02-28T08:41:39;11.50;66.70
19050;DHT22;9657;45.940;12.840;2023-02-28T08:44:08;11.50;66.60
19050;DHT22;9657;45.940;12.840;2023-02-28T08:46:35;11.50;66.60
19050;DHT22;9657;45.940;12.840;2023-02-28T08:49:02;11.50;66.60
19050;DHT22;9657;45.940;12.840;2023-02-28T08:51:29;11.50;66.60
19050;DHT22;9657;45.940;12.840;2023-02-28T08:53:59;11.50;66.60
19050;DHT22;9657;45.940;12.840;2023-02-28T08:56:27;11.50;66.50
19050;DHT22;9657;45.940;12.840;2023-02-28T08:58:55;11.50;66.50
19050;DHT22;9657;45.940;12.840;2023-02-28T09:01:26;11.50;66.50
19050;DHT22;9657;45.940;12.840;2023-02-28T09:03:54;11.50;66.50
19050;DHT22;9657;45.940;12.840;2023-02-28T09:06:23;11.50;66.50
19050;DHT22;9657;45.940;12.840;2023-02-28T09:08:51;11.50;66.40
19050;DHT22;9657;45.940;12.840;2023-02-28T09:11:19;11.50;66.50
19050;DHT22;9657;45.940;12.840;2023-02-28T09:13:46;11.50;66.50
19050;DHT22;9657;45.940;12.840;2023-02-28T09:16:14;11.50;66.40
19050;DHT22;9657;45.940;12.840;2023-02-28T09:18:44;11.50;66.40
19050;DHT22;9657;45.940;12.840;2023-02-28T09:21:12;11.50;66.30
19050;DHT22;9657;45.940;12.840;2023-02-28T09:23:40;11.50;66.20
19050;DHT22;9657;45.940;12.840;2023-02-28T09:26:08;11.50;66.20
19050;DHT22;9657;45.940;12.840;2023-02-28T09:28:39;11.50;66.20
19050;DHT22;9657;45.940;12.840;2023-02-28T09:31:06;11.50;66.20
19050;DHT22;9657;45.940;12.840;2023-02-28T09:33:33;11.50;66.20
19050;DHT22;9657;45.940;12.840;2023-02-28T09:36:03;11.50;66.10
19050;DHT22;9657;45.940;12.840;2023-02-28T09:38:30;11.50;66.10
19050;DHT22;9657;45.940;12.840;2023-02-28T09:41:00;11.50;66.10
19050;DHT22;9657;45.940;12.840;2023-02-28T09:43:31;11.50;66.10
19050;DHT22;9657;45.940;12.840;2023-02-28T09:46:05;11.60;66.20
19050;DHT22;9657;45.940;12.840;2023-02-28T09:48:39;11.60;66.10
19050;DHT22;9657;45.940;12.840;2023-02-28T09:51:15;11.60;66.10
19050;DHT22;9657;45.940;12.840;2023-02-28T09:53:50;11.60;66.00
19050;DHT22;9657;45.940;12.840;2023-02-28T09:56:21;11.60;66.00
19050;DHT22;9657;45.940;12.840;2023-02-28T09:58:56;11.60;66.90
19050;DHT22;9657;45.940;12.840;2023-02-28T10:01:30;11.60;66.00
19050;DHT22;9657;45.940;12.840;2023-02-28T10:04:03;11.60;66.10
19050;DHT22;9657;45.940;12.840;2023-02-28T10:06:38;11.60;66.00
19050;DHT22;9657;45.940;12.840;2023-02-28T10:09:11;11.60;65.80
19050;DHT22;9657;45.940;12.840;2023-02-28T10:11:40;11.60;65.80
19050;DHT22;9657;45.940;12.840;2023-02-28T10:14:13;11.60;65.80
19050;DHT22;9657;45.940;12.840;2023-02-28T10:16:43;11.60;65.80
19050;DHT22;9657;45.940;12.840;2023-02-28T10:19:16;11.60;65.90
19050;DHT22;9657;45.940;12.840;2023-02-28T10:21:55;11.60;65.80
19050;DHT22;9657;45.940;12.840;2023-02-28T10:24:29;11.60;65.80
19050;DHT22;9657;45.940;12.840;2023-02-28T10:27:01;11.60;65.70
19050;DHT22;9657;45.940;12.840;2023-02-28T10:29:32;11.60;65.70
19050;DHT22;9657;45.940;12.840;2023-02-28T10:32:02;11.60;65.70
19050;DHT22;9657;45.940;12.840;2023-02-28T10:34:30;11.60;65.70
19050;DHT22;9657;45.940;12.840;2023-02-28T10:36:59;11.60;65.80
19050;DHT22;9657;45.940;12.840;2023-02-28T10:39:37;11.60;65.90
19050;DHT22;9657;45.940;12.840;2023-02-28T10:42:05;11.60;65.90
19050;DHT22;9657;45.940;12.840;2023-02-28T10:44:44;11.60;65.80
19050;DHT22;9657;45.940;12.840;2023-02-28T10:47:14;11.60;65.80
19050;DHT22;9657;45.940;12.840;2023-02-28T10:49:47;11.60;65.80
19050;DHT22;9657;45.940;12.840;2023-02-28T10:52:33;11.60;65.70
19050;DHT22;9657;45.940;12.840;2023-02-28T10:55:15;11.70;65.80
19050;DHT22;9657;45.940;12.840;2023-02-28T10:57:43;11.70;65.70
19050;DHT22;9657;45.940;12.840;2023-02-28T11:00:16;11.70;65.80
19050;DHT22;9657;45.940;12.840;2023-02-28T11:02:44;11.70;65.80
19050;DHT22;9657;45.940;12.840;2023-02-28T11:05:26;11.70;65.80
19050;DHT22;9657;45.940;12.840;2023-02-28T11:07:55;11.70;65.70
19050;DHT22;9657;45.940;12.840;2023-02-28T11:10:26;11.70;65.80
19050;DHT22;9657;45.940;12.840;2023-02-28T11:12:56;11.70;65.70
19050;DHT22;9657;45.940;12.840;2023-02-28T11:15:26;11.70;65.70
19050;DHT22;9657;45.940;12.840;2023-02-28T11:17:55;11.70;65.70
19050;DHT22;9657;45.940;12.840;2023-02-28T11:20:25;11.70;65.70
19050;DHT22;9657;45.940;12.840;2023-02-28T11:22:54;11.70;65.70
19050;DHT22;9657;45.940;12.840;2023-02-28T11:25:25;11.70;65.60
19050;DHT22;9657;45.940;12.840;2023-02-28T11:27:53;11.70;65.50
19050;DHT22;9657;45.940;12.840;2023-02-28T11:30:30;11.70;65.60
19050;DHT22;9657;45.940;12.840;2023-02-28T11:32:57;11.70;65.50
19050;DHT22;9657;45.940;12.840;2023-02-28T11:35:30;11.70;65.60
19050;DHT22;9657;45.940;12.840;2023-02-28T11:38:01;11.70;65.50
19050;DHT22;9657;45.940;12.840;2023-02-28T11:40:39;11.70;65.50
19050;DHT22;9657;45.940;12.840;2023-02-28T11:43:20;11.70;65.30
19050;DHT22;9657;45.940;12.840;2023-02-28T11:46:00;11.70;66.10
19050;DHT22;9657;45.940;12.840;2023-02-28T11:48:35;11.70;65.30
19050;DHT22;9657;45.940;12.840;2023-02-28T11:51:13;11.70;65.50
19050;DHT22;9657;45.940;12.840;2023-02-28T11:53:59;11.70;65.40
19050;DHT22;9657;45.940;12.840;2023-02-28T11:56:31;11.80;65.30
19050;DHT22;9657;45.940;12.840;2023-02-28T11:59:11;11.70;65.30
19050;DHT22;9657;45.940;12.840;2023-02-28T12:01:59;11.80;65.30
19050;DHT22;9657;45.940;12.840;2023-02-28T12:04:36;11.80;65.30
19050;DHT22;9657;45.940;12.840;2023-02-28T12:07:13;11.70;65.20
19050;DHT22;9657;45.940;12.840;2023-02-28T12:09:55;11.80;65.30
19050;DHT22;9657;45.940;12.840;2023-02-28T12:12:39;11.80;65.20
19050;DHT22;9657;45.940;12.840;2023-02-28T12:15:39;11.80;65.20
19050;DHT22;9657;45.940;12.840;2023-02-28T12:18:25;11.80;65.10
19050;DHT22;9657;45.940;12.840;2023-02-28T12:20:57;11.80;65.20
19050;DHT22;9657;45.940;12.840;2023-02-28T12:23:51;11.80;65.20
19050;DHT22;9657;45.940;12.840;2023-02-28T12:26:31;11.80;65.20
19050;DHT22;9657;45.940;12.840;2023-02-28T12:29:08;11.80;65.20
19050;DHT22;9657;45.940;12.840;2023-02-28T12:31:40;11.80;65.40
19050;DHT22;9657;45.940;12.840;2023-02-28T12:34:12;11.80;65.40
19050;DHT22;9657;45.940;12.840;2023-02-28T12:36:40;11.80;65.40
19050;DHT22;9657;45.940;12.840;2023-02-28T12:39:11;11.80;65.50
19050;DHT22;9657;45.940;12.840;2023-02-28T12:41:44;11.80;65.50
19050;DHT22;9657;45.940;12.840;2023-02-28T12:44:17;11.80;65.50
19050;DHT22;9657;45.940;12.840;2023-02-28T12:46:47;11.80;65.50
19050;DHT22;9657;45.940;12.840;2023-02-28T12:49:19;11.80;65.50
19050;DHT22;9657;45.940;12.840;2023-02-28T12:51:49;11.80;65.50
19050;DHT22;9657;45.940;12.840;2023-02-28T12:54:22;11.80;65.50
19050;DHT22;9657;45.940;12.840;2023-02-28T12:56:56;11.80;65.50
19050;DHT22;9657;45.940;12.840;2023-02-28T12:59:29;11.90;65.50
19050;DHT22;9657;45.940;12.840;2023-02-28T13:05:50;11.80;65.30
19050;DHT22;9657;45.940;12.840;2023-02-28T13:11:25;11.90;65.30
19050;DHT22;9657;45.940;12.840;2023-02-28T13:13:59;11.80;65.30
19050;DHT22;9657;45.940;12.840;2023-02-28T13:16:27;11.90;65.30
19050;DHT22;9657;45.940;12.840;2023-02-28T13:19:09;11.90;65.30
19050;DHT22;9657;45.940;12.840;2023-02-28T13:21:43;11.90;65.20
19050;DHT22;9657;45.940;12.840;2023-02-28T13:24:11;11.90;65.20
19050;DHT22;9657;45.940;12.840;2023-02-28T13:29:59;11.90;65.10
19050;DHT22;9657;45.940;12.840;2023-02-28T13:32:34;11.90;65.20
19050;DHT22;9657;45.940;12.840;2023-02-28T13:35:36;11.90;65.20
19050;DHT22;9657;45.940;12.840;2023-02-28T13:44:05;11.90;65.00
19050;DHT22;9657;45.940;12.840;2023-02-28T13:46:36;11.90;65.00
19050;DHT22;9657;45.940;12.840;2023-02-28T13:49:19;11.90;65.00
19050;DHT22;9657;45.940;12.840;2023-02-28T13:51:48;11.90;64.80
19050;DHT22;9657;45.940;12.840;2023-02-28T13:54:27;11.90;65.00
19050;DHT22;9657;45.940;12.840;2023-02-28T13:57:08;11.90;64.90
19050;DHT22;9657;45.940;12.840;2023-02-28T13:59:45;11.90;64.90
19050;DHT22;9657;45.940;12.840;2023-02-28T14:02:40;11.90;64.80
19050;DHT22;9657;45.940;12.840;2023-02-28T14:05:14;11.90;64.90
19050;DHT22;9657;45.940;12.840;2023-02-28T14:07:45;11.90;64.80
19050;DHT22;9657;45.940;12.840;2023-02-28T14:10:23;11.90;64.80
19050;DHT22;9657;45.940;12.840;2023-02-28T14:12:59;11.90;64.80
19050;DHT22;9657;45.940;12.840;2023-02-28T14:18:29;12.00;64.90
19050;DHT22;9657;45.940;12.840;2023-02-28T14:21:02;12.00;64.90
19050;DHT22;9657;45.940;12.840;2023-02-28T14:23:44;12.00;64.90
19050;DHT22;9657;45.940;12.840;2023-02-28T14:26:25;11.90;64.80
19050;DHT22;9657;45.940;12.840;2023-02-28T14:29:09;12.00;64.80
19050;DHT22;9657;45.940;12.840;2023-02-28T14:31:40;12.00;64.80
19050;DHT22;9657;45.940;12.840;2023-02-28T14:34:24;12.00;64.90
19050;DHT22;9657;45.940;12.840;2023-02-28T14:36:53;12.00;64.80
19050;DHT22;9657;45.940;12.840;2023-02-28T14:39:22;12.00;64.90
19050;DHT22;9657;45.940;12.840;2023-02-28T14:41:50;12.00;65.70
19050;DHT22;9657;45.940;12.840;2023-02-28T14:44:19;12.00;64.80
19050;DHT22;9657;45.940;12.840;2023-02-28T14:46:48;12.00;64.90
19050;DHT22;9657;45.940;12.840;2023-02-28T14:49:19;12.00;64.90
19050;DHT22;9657;45.940;12.840;2023-02-28T14:51:49;12.00;64.70
19050;DHT22;9657;45.940;12.840;2023-02-28T14:54:19;12.00;64.80
19050;DHT22;9657;45.940;12.840;2023-02-28T14:56:50;12.00;64.80
19050;DHT22;9657;45.940;12.840;2023-02-28T14:59:29;12.00;64.90
19050;DHT22;9657;45.940;12.840;2023-02-28T15:02:19;12.00;64.80
19050;DHT22;9657;45.940;12.840;2023-02-28T15:04:55;12.00;64.70
19050;DHT22;9657;45.940;12.840;2023-02-28T15:07:22;12.00;64.80
19050;DHT22;9657;45.940;12.840;2023-02-28T15:10:10;12.00;64.90
19050;DHT22;9657;45.940;12.840;2023-02-28T15:12:39;12.00;64.80
19050;DHT22;9657;45.940;12.840;2023-02-28T15:15:14;12.00;64.80
19050;DHT22;9657;45.940;12.840;2023-02-28T15:17:44;12.00;64.90
19050;DHT22;9657;45.940;12.840;2023-02-28T15:20:14;12.00;64.90
19050;DHT22;9657;45.940;12.840;2023-02-28T15:22:42;12.00;64.90
19050;DHT22;9657;45.940;12.840;2023-02-28T15:25:14;12.00;64.90
19050;DHT22;9657;45.940;12.840;2023-02-28T15:27:45;12.00;64.90
19050;DHT22;9657;45.940;12.840;2023-02-28T15:30:16;12.00;64.90
19050;DHT22;9657;45.940;12.840;2023-02-28T15:32:44;12.10;64.90
19050;DHT22;9657;45.940;12.840;2023-02-28T15:35:25;12.10;64.90
19050;DHT22;9657;45.940;12.840;2023-02-28T15:37:55;12.00;64.90
19050;DHT22;9657;45.940;12.840;2023-02-28T15:40:26;12.10;64.90
19050;DHT22;9657;45.940;12.840;2023-02-28T15:43:05;12.10;65.00
19050;DHT22;9657;45.940;12.840;2023-02-28T15:45:34;12.00;64.80
19050;DHT22;9657;45.940;12.840;2023-02-28T15:48:05;12.00;64.90
19050;DHT22;9657;45.940;12.840;2023-02-28T15:50:34;12.10;64.90
19050;DHT22;9657;45.940;12.840;2023-02-28T15:53:01;12.10;64.90
19050;DHT22;9657;45.940;12.840;2023-02-28T15:55:30;12.00;64.90
19050;DHT22;9657;45.940;12.840;2023-02-28T15:58:00;12.10;65.00
19050;DHT22;9657;45.940;12.840;2023-02-28T16:00:29;12.00;64.90
19050;DHT22;9657;45.940;12.840;2023-02-28T16:02:58;12.10;64.90
19050;DHT22;9657;45.940;12.840;2023-02-28T16:05:26;12.10;65.00
19050;DHT22;9657;45.940;12.840;2023-02-28T16:08:10;12.10;65.00
19050;DHT22;9657;45.940;12.840;2023-02-28T16:10:38;12.00;64.90
19050;DHT22;9657;45.940;12.840;2023-02-28T16:13:05;12.10;64.90
19050;DHT22;9657;45.940;12.840;2023-02-28T16:15:37;12.10;65.00